createdAt,value
2022-09-24T00:01:16.445Z,99.90
2022-09-24T00:03:47.540Z,99.90
2022-09-24T00:06:14.327Z,99.90
2022-09-24T00:08:41.901Z,99.90
2022-09-24T00:11:12.951Z,99.90
2022-09-24T00:13:39.764Z,99.90
2022-09-24T00:16:12.320Z,99.90
2022-09-24T00:18:39.273Z,99.90
2022-09-24T00:21:19.230Z,99.90
2022-09-24T00:23:49.339Z,99.90
2022-09-24T00:26:34.869Z,99.90
2022-09-24T00:29:01.820Z,99.90
2022-09-24T00:31:28.663Z,99.90
2022-09-24T00:33:55.384Z,99.90
2022-09-24T00:36:22.747Z,99.90
2022-09-24T00:38:51.272Z,99.90
2022-09-24T00:41:20.054Z,99.90
2022-09-24T00:43:47.917Z,99.90
2022-09-24T00:46:18.039Z,99.90
2022-09-24T00:48:45.741Z,99.90
2022-09-24T00:51:14.057Z,99.90
2022-09-24T00:53:41.430Z,99.90
2022-09-24T00:56:10.011Z,99.90
2022-09-24T00:58:37.138Z,99.90
2022-09-24T01:01:05.166Z,99.90
2022-09-24T01:03:33.355Z,99.90
2022-09-24T01:05:59.981Z,99.90
2022-09-24T01:08:26.738Z,99.90
2022-09-24T01:10:56.401Z,99.90
2022-09-24T01:13:43.655Z,99.90
2022-09-24T01:16:14.367Z,99.90
2022-09-24T01:18:43.994Z,99.90
2022-09-24T01:21:16.731Z,99.90
2022-09-24T01:24:02.160Z,99.90
2022-09-24T01:26:48.154Z,99.90
2022-09-24T01:29:28.293Z,99.90
2022-09-24T01:32:06.761Z,99.90
2022-09-24T01:34:43.147Z,99.90
2022-09-24T01:37:09.839Z,99.90
2022-09-24T01:39:37.822Z,99.90
2022-09-24T01:42:05.332Z,99.90
2022-09-24T01:44:34.168Z,99.90
2022-09-24T01:47:01.044Z,99.90
2022-09-24T01:49:28.251Z,99.90
2022-09-24T01:51:58.271Z,99.90
2022-09-24T01:54:33.064Z,99.90
2022-09-24T01:57:05.524Z,99.90
2022-09-24T01:59:36.478Z,99.90
2022-09-24T02:02:10.307Z,99.90
2022-09-24T02:04:41.906Z,99.90
2022-09-24T02:07:15.240Z,99.90
2022-09-24T02:10:31.951Z,99.90
2022-09-24T02:14:14.046Z,99.90
2022-09-24T02:16:46.370Z,99.90
2022-09-24T02:19:15.079Z,99.90
2022-09-24T02:21:42.337Z,99.90
2022-09-24T02:24:29.345Z,99.90
2022-09-24T02:26:57.435Z,99.90
2022-09-24T02:29:24.408Z,99.90
2022-09-24T02:31:52.657Z,99.90
2022-09-24T02:34:20.889Z,99.90
2022-09-24T02:36:52.526Z,99.90
2022-09-24T02:39:19.628Z,99.90
2022-09-24T02:41:49.690Z,99.90
2022-09-24T02:44:17.119Z,99.90
2022-09-24T02:46:44.292Z,99.90
2022-09-24T02:49:11.791Z,99.90
2022-09-24T02:51:39.064Z,99.90
2022-09-24T02:54:05.975Z,99.90
2022-09-24T02:56:32.899Z,99.90
2022-09-24T02:59:01.283Z,99.90
2022-09-24T03:01:28.069Z,99.90
2022-09-24T03:03:55.073Z,99.90
2022-09-24T03:06:21.741Z,99.90
2022-09-24T03:08:48.422Z,99.90
2022-09-24T03:11:18.736Z,99.90
2022-09-24T03:13:45.849Z,99.90
2022-09-24T03:16:12.521Z,99.90
2022-09-24T03:18:39.232Z,99.90
2022-09-24T03:21:07.187Z,99.90
2022-09-24T03:23:34.589Z,99.90
2022-09-24T03:26:01.408Z,99.90
2022-09-24T03:28:28.143Z,99.90
2022-09-24T03:31:01.290Z,99.90
2022-09-24T03:33:27.995Z,99.90
2022-09-24T03:36:18.147Z,99.90
2022-09-24T03:38:45.993Z,99.90
2022-09-24T03:41:13.087Z,99.90
2022-09-24T03:43:39.734Z,99.90
2022-09-24T03:46:06.957Z,99.90
2022-09-24T03:48:34.738Z,99.90
2022-09-24T03:51:05.957Z,99.90
2022-09-24T03:53:32.740Z,99.90
2022-09-24T03:55:59.894Z,99.90
2022-09-24T03:58:26.752Z,99.90
2022-09-24T04:00:53.924Z,99.90
2022-09-24T04:03:21.397Z,99.90
2022-09-24T04:05:50.665Z,99.90
2022-09-24T04:08:19.092Z,99.90
2022-09-24T04:10:46.520Z,99.90
2022-09-24T04:13:13.559Z,99.90
2022-09-24T04:15:40.384Z,99.90
2022-09-24T04:18:07.508Z,99.90
2022-09-24T04:20:35.167Z,99.90
2022-09-24T04:23:01.995Z,99.90
2022-09-24T04:25:30.630Z,99.90
2022-09-24T04:27:58.914Z,99.90
2022-09-24T04:30:26.210Z,99.90
2022-09-24T04:32:52.881Z,99.90
2022-09-24T04:35:20.577Z,99.90
2022-09-24T04:37:47.925Z,99.90
2022-09-24T04:40:16.191Z,99.90
2022-09-24T04:42:44.865Z,99.90
2022-09-24T04:45:12.069Z,99.90
2022-09-24T04:47:40.599Z,99.90
2022-09-24T04:50:08.184Z,99.90
2022-09-24T04:52:34.872Z,99.90
2022-09-24T04:55:01.780Z,99.90
2022-09-24T04:57:29.498Z,99.90
2022-09-24T04:59:56.074Z,99.90
2022-09-24T05:02:24.138Z,99.90
2022-09-24T05:04:50.923Z,99.90
2022-09-24T05:07:17.732Z,99.90
2022-09-24T05:09:44.335Z,99.90
2022-09-24T05:12:11.403Z,99.90
2022-09-24T05:14:38.054Z,99.90
2022-09-24T05:17:04.775Z,99.90
2022-09-24T05:19:31.636Z,99.90
2022-09-24T05:21:59.136Z,99.90
2022-09-24T05:24:25.742Z,99.90
2022-09-24T05:27:10.944Z,99.90
2022-09-24T05:29:42.337Z,99.90
2022-09-24T05:32:13.452Z,99.90
2022-09-24T05:34:41.371Z,99.90
2022-09-24T05:37:07.942Z,99.90
2022-09-24T05:39:34.643Z,99.90
2022-09-24T05:42:03.691Z,99.90
2022-09-24T05:44:31.145Z,99.90
2022-09-24T05:46:58.047Z,99.90
2022-09-24T05:49:24.776Z,99.90
2022-09-24T05:51:51.455Z,99.90
2022-09-24T05:54:18.541Z,99.90
2022-09-24T05:56:45.618Z,99.90
2022-09-24T05:59:12.485Z,99.90
2022-09-24T06:01:39.269Z,99.90
2022-09-24T06:04:08.855Z,99.90
2022-09-24T06:06:36.036Z,99.90
2022-09-24T06:09:03.286Z,99.90
2022-09-24T06:11:39.993Z,99.90
2022-09-24T06:14:08.987Z,99.90
2022-09-24T06:16:35.909Z,99.90
2022-09-24T06:19:02.753Z,99.90
2022-09-24T06:21:29.484Z,99.90
2022-09-24T06:23:56.291Z,99.90
2022-09-24T06:26:23.061Z,99.90
2022-09-24T06:28:50.048Z,99.90
2022-09-24T06:31:16.905Z,99.90
2022-09-24T06:33:43.683Z,99.90
2022-09-24T06:36:10.312Z,99.90
2022-09-24T06:38:39.422Z,99.90
2022-09-24T06:41:06.388Z,99.90
2022-09-24T06:43:34.035Z,99.90
2022-09-24T06:46:01.247Z,99.90
2022-09-24T06:48:28.079Z,99.90
2022-09-24T06:50:56.283Z,99.90
2022-09-24T06:53:23.109Z,99.90
2022-09-24T06:55:49.752Z,99.90
2022-09-24T06:58:20.879Z,99.90
2022-09-24T07:00:58.995Z,99.90
2022-09-24T07:03:26.992Z,99.90
2022-09-24T07:05:53.619Z,99.90
2022-09-24T07:08:20.501Z,99.90
2022-09-24T07:10:49.209Z,99.90
2022-09-24T07:13:16.161Z,99.90
2022-09-24T07:15:43.257Z,99.90
2022-09-24T07:18:10.601Z,99.90
2022-09-24T07:20:37.599Z,99.90
2022-09-24T07:23:08.461Z,99.90
2022-09-24T07:25:35.833Z,99.90
2022-09-24T07:28:03.930Z,99.90
2022-09-24T07:30:31.070Z,99.90
2022-09-24T07:32:57.867Z,99.90
2022-09-24T07:35:24.935Z,99.90
2022-09-24T07:38:01.953Z,99.90
2022-09-24T07:40:29.374Z,99.90
2022-09-24T07:42:56.370Z,99.90
2022-09-24T07:45:23.797Z,99.90
2022-09-24T07:48:04.394Z,99.90
2022-09-24T07:50:32.652Z,99.90
2022-09-24T07:53:00.530Z,99.90
2022-09-24T07:55:27.394Z,99.90
2022-09-24T07:57:54.756Z,99.90
2022-09-24T08:00:22.247Z,99.90
2022-09-24T08:02:48.998Z,99.90
2022-09-24T08:05:17.542Z,99.90
2022-09-24T08:07:50.982Z,99.90
2022-09-24T08:10:17.743Z,99.90
2022-09-24T08:12:44.552Z,99.90
2022-09-24T08:15:11.394Z,99.90
2022-09-24T08:17:38.101Z,99.90
2022-09-24T08:20:05.272Z,99.90
2022-09-24T08:22:32.068Z,99.90
2022-09-24T08:24:58.775Z,99.90
2022-09-24T08:27:25.457Z,99.10
2022-09-24T08:29:52.165Z,98.30
2022-09-24T08:32:18.976Z,93.60
2022-09-24T08:34:45.672Z,87.70
2022-09-24T08:37:13.411Z,83.30
2022-09-24T08:39:40.163Z,78.30
2022-09-24T08:42:10.919Z,77.00
2022-09-24T08:45:03.340Z,72.20
2022-09-24T08:47:36.436Z,71.50
2022-09-24T08:50:07.129Z,71.50
2022-09-24T08:52:42.669Z,68.90
2022-09-24T08:55:14.997Z,69.80
2022-09-24T08:57:48.303Z,70.60
2022-09-24T09:00:15.559Z,71.70
2022-09-24T09:02:48.155Z,74.80
2022-09-24T09:05:14.987Z,77.80
2022-09-24T09:07:48.518Z,75.60
2022-09-24T09:10:17.878Z,72.20
2022-09-24T09:12:46.262Z,67.40
2022-09-24T09:15:13.122Z,65.20
2022-09-24T09:17:42.158Z,62.70
2022-09-24T09:20:18.024Z,60.00
2022-09-24T09:22:47.327Z,58.60
2022-09-24T09:25:25.477Z,59.60
2022-09-24T09:27:58.387Z,60.70
2022-09-24T09:30:25.150Z,58.80
2022-09-24T09:33:00.296Z,59.70
2022-09-24T09:35:33.180Z,58.60
2022-09-24T09:38:17.631Z,55.70
2022-09-24T09:40:47.383Z,54.80
2022-09-24T09:43:14.413Z,52.20
2022-09-24T09:46:00.104Z,50.80
2022-09-24T09:48:30.989Z,51.60
2022-09-24T09:51:06.035Z,51.10
2022-09-24T09:53:32.980Z,50.80
2022-09-24T09:56:01.350Z,51.00
2022-09-24T09:58:28.969Z,48.70
2022-09-24T10:01:15.584Z,47.30
2022-09-24T10:03:46.533Z,48.00
2022-09-24T10:06:26.329Z,47.30
2022-09-24T10:08:53.493Z,47.40
2022-09-24T10:11:22.187Z,46.60
2022-09-24T10:14:01.494Z,45.90
2022-09-24T10:16:28.241Z,44.00
2022-09-24T10:18:54.882Z,44.20
2022-09-24T10:21:39.867Z,44.40
2022-09-24T10:24:11.865Z,44.30
2022-09-24T10:26:44.808Z,43.90
2022-09-24T10:29:41.154Z,43.40
2022-09-24T10:32:14.854Z,43.10
2022-09-24T10:34:41.816Z,42.80
2022-09-24T10:37:14.919Z,43.10
2022-09-24T10:39:41.849Z,43.80
2022-09-24T10:42:25.037Z,43.90
2022-09-24T10:44:53.982Z,44.20
2022-09-24T10:47:41.202Z,45.10
2022-09-24T10:50:11.238Z,42.50
2022-09-24T10:52:40.596Z,43.80
2022-09-24T10:55:15.089Z,41.90
2022-09-24T10:57:52.469Z,42.80
2022-09-24T11:00:20.519Z,43.00
2022-09-24T11:03:04.063Z,44.00
2022-09-24T11:05:33.200Z,43.80
2022-09-24T11:08:11.755Z,43.50
2022-09-24T11:10:40.668Z,43.40
2022-09-24T11:13:28.105Z,43.50
2022-09-24T11:16:13.687Z,43.90
2022-09-24T11:19:06.583Z,43.60
2022-09-24T11:21:44.414Z,44.80
2022-09-24T11:24:18.975Z,45.40
2022-09-24T11:26:48.370Z,46.40
2022-09-24T11:29:15.209Z,46.90
2022-09-24T11:31:47.917Z,47.10
2022-09-24T11:34:37.740Z,47.90
2022-09-24T11:37:04.587Z,48.40
2022-09-24T11:39:40.013Z,49.70
2022-09-24T11:42:16.697Z,49.50
2022-09-24T11:44:46.357Z,50.30
2022-09-24T11:47:36.831Z,50.70
2022-09-24T11:50:06.394Z,51.90
2022-09-24T11:52:41.316Z,50.20
2022-09-24T11:55:10.853Z,48.80
2022-09-24T11:57:40.154Z,46.00
2022-09-24T12:00:12.600Z,45.80
2022-09-24T12:03:04.154Z,45.10
2022-09-24T12:05:30.893Z,44.70
2022-09-24T12:08:04.192Z,44.60
2022-09-24T12:10:36.929Z,44.70
2022-09-24T12:13:13.035Z,44.80
2022-09-24T12:15:48.412Z,44.10
2022-09-24T12:18:17.751Z,44.10
2022-09-24T12:20:53.598Z,44.00
2022-09-24T12:23:23.885Z,44.50
2022-09-24T12:25:53.605Z,43.80
2022-09-24T12:28:40.654Z,44.70
2022-09-24T12:31:31.442Z,44.10
2022-09-24T12:34:03.623Z,45.00
2022-09-24T12:36:38.190Z,46.40
2022-09-24T12:39:08.053Z,46.70
2022-09-24T12:41:35.967Z,45.70
2022-09-24T12:44:06.097Z,46.20
2022-09-24T12:46:50.800Z,45.80
2022-09-24T12:49:26.268Z,44.10
2022-09-24T12:51:53.885Z,43.50
2022-09-24T12:54:24.405Z,43.00
2022-09-24T12:56:51.624Z,43.00
2022-09-24T12:59:25.912Z,42.80
2022-09-24T13:01:52.704Z,42.80
2022-09-24T13:04:19.853Z,44.40
2022-09-24T13:06:48.298Z,44.80
2022-09-24T13:09:30.204Z,44.10
2022-09-24T13:12:04.839Z,43.50
2022-09-24T13:14:33.248Z,44.30
2022-09-24T13:17:05.178Z,44.80
2022-09-24T13:19:37.803Z,46.00
2022-09-24T13:22:04.896Z,47.40
2022-09-24T13:24:34.165Z,48.10
2022-09-24T13:27:21.536Z,50.00
2022-09-24T13:29:52.724Z,50.60
2022-09-24T13:32:21.489Z,53.20
2022-09-24T13:34:50.497Z,53.80
2022-09-24T13:37:20.878Z,54.00
2022-09-24T13:39:51.402Z,53.70
2022-09-24T13:42:24.153Z,54.50
2022-09-24T13:44:55.762Z,55.30
2022-09-24T13:47:30.445Z,56.60
2022-09-24T13:50:03.753Z,57.20
2022-09-24T13:52:33.648Z,57.60
2022-09-24T13:55:03.223Z,57.60
2022-09-24T13:57:30.287Z,57.80
2022-09-24T14:00:09.366Z,58.10
2022-09-24T14:02:38.343Z,57.60
2022-09-24T14:05:07.737Z,57.80
2022-09-24T14:07:34.529Z,57.80
2022-09-24T14:10:02.338Z,58.10
2022-09-24T14:12:28.980Z,58.40
2022-09-24T14:14:58.065Z,58.80
2022-09-24T14:17:24.717Z,58.90
2022-09-24T14:19:55.414Z,59.50
2022-09-24T14:22:35.196Z,59.30
2022-09-24T14:25:04.211Z,59.20
2022-09-24T14:27:31.535Z,59.40
2022-09-24T14:30:00.087Z,58.90
2022-09-24T14:32:28.923Z,59.80
2022-09-24T14:35:00.350Z,59.10
2022-09-24T14:37:30.742Z,59.20
2022-09-24T14:39:58.808Z,59.60
2022-09-24T14:42:29.611Z,60.00
2022-09-24T14:44:56.517Z,59.10
2022-09-24T14:47:27.767Z,58.90
2022-09-24T14:49:55.027Z,59.60
2022-09-24T14:52:26.515Z,59.20
2022-09-24T14:55:12.181Z,59.40
2022-09-24T14:57:38.828Z,59.90
2022-09-24T15:00:38.031Z,58.30
2022-09-24T15:03:12.127Z,58.40
2022-09-24T15:05:38.957Z,58.70
2022-09-24T15:08:27.421Z,58.90
2022-09-24T15:10:55.129Z,59.60
2022-09-24T15:13:23.213Z,58.90
2022-09-24T15:16:00.578Z,58.70
2022-09-24T15:18:27.308Z,59.70
2022-09-24T15:20:54.066Z,60.70
2022-09-24T15:23:20.749Z,60.80
2022-09-24T15:25:47.373Z,61.20
2022-09-24T15:28:14.259Z,61.40
2022-09-24T15:30:42.078Z,61.60
2022-09-24T15:33:12.660Z,62.50
2022-09-24T15:35:40.860Z,62.60
2022-09-24T15:38:13.847Z,61.70
2022-09-24T15:40:42.239Z,61.90
2022-09-24T15:43:24.519Z,63.00
2022-09-24T15:45:51.199Z,62.60
2022-09-24T15:48:17.848Z,63.40
2022-09-24T15:50:45.750Z,63.10
2022-09-24T15:53:17.446Z,63.60
2022-09-24T15:55:45.520Z,64.30
2022-09-24T15:58:18.564Z,64.00
2022-09-24T16:00:46.558Z,64.20
2022-09-24T16:03:40.330Z,65.70
2022-09-24T16:06:10.080Z,64.30
2022-09-24T16:08:36.746Z,63.70
2022-09-24T16:11:08.839Z,63.50
2022-09-24T16:13:36.372Z,64.30
2022-09-24T16:16:06.091Z,63.20
2022-09-24T16:18:32.805Z,63.50
2022-09-24T16:20:59.611Z,63.00
2022-09-24T16:23:26.458Z,63.90
2022-09-24T16:25:57.485Z,64.50
2022-09-24T16:28:24.872Z,64.20
2022-09-24T16:30:51.734Z,64.70
2022-09-24T16:33:18.549Z,65.50
2022-09-24T16:35:45.364Z,66.20
2022-09-24T16:38:12.255Z,65.80
2022-09-24T16:40:39.168Z,66.50
2022-09-24T16:43:06.146Z,66.40
2022-09-24T16:45:32.858Z,66.90
2022-09-24T16:47:59.850Z,66.50
2022-09-24T16:50:26.914Z,66.70
2022-09-24T16:52:57.371Z,66.90
2022-09-24T16:55:24.180Z,67.30
2022-09-24T16:57:51.822Z,68.30
2022-09-24T17:00:18.694Z,68.80
2022-09-24T17:02:45.356Z,68.80
2022-09-24T17:05:12.082Z,69.60
2022-09-24T17:07:38.747Z,70.10
2022-09-24T17:10:15.753Z,70.30
2022-09-24T17:12:43.934Z,71.00
2022-09-24T17:15:11.236Z,71.80
2022-09-24T17:17:45.606Z,72.40
2022-09-24T17:20:15.835Z,73.40
2022-09-24T17:22:42.665Z,76.20
2022-09-24T17:25:09.313Z,77.90
2022-09-24T17:27:36.136Z,79.00
2022-09-24T17:30:03.891Z,79.40
2022-09-24T17:32:30.625Z,81.00
2022-09-24T17:34:57.330Z,82.10
2022-09-24T17:37:23.988Z,82.30
2022-09-24T17:39:50.651Z,82.00
2022-09-24T17:42:17.297Z,83.20
2022-09-24T17:44:43.957Z,84.70
2022-09-24T17:47:10.653Z,85.40
2022-09-24T17:49:37.711Z,86.40
2022-09-24T17:52:04.724Z,87.00
2022-09-24T17:54:31.455Z,88.30
2022-09-24T17:56:58.090Z,88.90
2022-09-24T17:59:27.016Z,89.60
2022-09-24T18:01:53.955Z,90.50
2022-09-24T18:04:21.093Z,90.80
2022-09-24T18:06:48.679Z,91.80
2022-09-24T18:09:16.198Z,92.30
2022-09-24T18:11:44.525Z,92.50
2022-09-24T18:14:14.671Z,92.80
2022-09-24T18:16:41.452Z,93.40
2022-09-24T18:19:09.101Z,93.90
2022-09-24T18:21:35.863Z,94.00
2022-09-24T18:24:02.762Z,94.10
2022-09-24T18:26:32.578Z,95.00
2022-09-24T18:29:00.131Z,95.50
2022-09-24T18:31:28.209Z,96.20
2022-09-24T18:33:55.875Z,96.20
2022-09-24T18:36:24.006Z,96.40
2022-09-24T18:38:50.766Z,96.80
2022-09-24T18:41:21.755Z,96.90
2022-09-24T18:43:48.571Z,97.20
2022-09-24T18:46:15.971Z,97.30
2022-09-24T18:48:43.598Z,97.70
2022-09-24T18:51:17.840Z,97.90
2022-09-24T18:53:44.962Z,98.00
2022-09-24T18:56:11.785Z,98.30
2022-09-24T18:58:38.660Z,98.70
2022-09-24T19:01:09.401Z,99.10
2022-09-24T19:03:37.595Z,99.50
2022-09-24T19:06:05.736Z,99.60
2022-09-24T19:08:33.742Z,99.90
2022-09-24T19:11:08.000Z,99.90
2022-09-24T19:13:36.851Z,99.90
2022-09-24T19:16:04.905Z,99.90
2022-09-24T19:18:32.572Z,99.90
2022-09-24T19:20:59.325Z,99.90
2022-09-24T19:23:26.102Z,99.90
2022-09-24T19:25:52.962Z,99.90
2022-09-24T19:28:19.900Z,99.90
2022-09-24T19:30:47.653Z,99.90
2022-09-24T19:33:15.910Z,99.90
2022-09-24T19:35:51.960Z,99.90
2022-09-24T19:38:18.628Z,99.90
2022-09-24T19:40:55.126Z,99.90
2022-09-24T19:43:22.413Z,99.90
2022-09-24T19:45:56.313Z,99.90
2022-09-24T19:48:23.099Z,99.90
2022-09-24T19:50:49.773Z,99.90
2022-09-24T19:53:16.713Z,99.90
2022-09-24T19:55:43.827Z,99.90
2022-09-24T19:58:10.647Z,99.90
2022-09-24T20:00:38.996Z,99.90
2022-09-24T20:03:05.867Z,99.90
2022-09-24T20:05:33.503Z,99.90
2022-09-24T20:08:00.904Z,99.90
2022-09-24T20:10:27.843Z,99.90
2022-09-24T20:12:54.609Z,99.90
2022-09-24T20:15:22.258Z,99.90
2022-09-24T20:17:49.479Z,99.90
2022-09-24T20:20:16.163Z,99.90
2022-09-24T20:22:43.427Z,99.90
2022-09-24T20:25:11.600Z,99.90
2022-09-24T20:27:56.325Z,99.90
2022-09-24T20:30:23.828Z,99.90
2022-09-24T20:32:51.003Z,99.90
2022-09-24T20:35:17.771Z,99.90
2022-09-24T20:37:44.819Z,99.90
2022-09-24T20:40:11.749Z,99.90
2022-09-24T20:42:38.848Z,99.90
2022-09-24T20:45:06.923Z,99.90
2022-09-24T20:47:33.678Z,99.90
2022-09-24T20:50:00.642Z,99.90
2022-09-24T20:52:27.286Z,99.90
2022-09-24T20:54:54.106Z,99.90
2022-09-24T20:57:20.777Z,99.90
2022-09-24T20:59:49.129Z,99.90
2022-09-24T21:02:16.901Z,99.90
2022-09-24T21:04:44.436Z,99.90
2022-09-24T21:07:11.271Z,99.90
2022-09-24T21:09:38.146Z,99.90
2022-09-24T21:12:04.930Z,99.90
2022-09-24T21:14:35.528Z,99.90
2022-09-24T21:17:03.006Z,99.90
2022-09-24T21:19:32.437Z,99.90
2022-09-24T21:21:59.820Z,99.90
2022-09-24T21:24:31.269Z,99.90
2022-09-24T21:26:59.556Z,99.90
2022-09-24T21:29:26.443Z,99.90
2022-09-24T21:31:53.311Z,99.90
2022-09-24T21:34:23.098Z,99.90
2022-09-24T21:36:50.187Z,99.90
2022-09-24T21:39:18.123Z,99.90
2022-09-24T21:41:45.663Z,99.90
2022-09-24T21:44:14.212Z,99.90
2022-09-24T21:46:43.548Z,99.90
2022-09-24T21:49:11.332Z,99.90
2022-09-24T21:51:38.202Z,99.90
2022-09-24T21:54:06.277Z,99.90
2022-09-24T21:56:34.037Z,99.90
2022-09-24T21:59:01.158Z,99.90
2022-09-24T22:01:29.201Z,99.90
2022-09-24T22:03:57.053Z,99.90
2022-09-24T22:06:27.092Z,99.90
2022-09-24T22:08:58.134Z,99.90
2022-09-24T22:11:26.561Z,99.90
2022-09-24T22:13:54.131Z,99.90
2022-09-24T22:16:21.705Z,99.90
2022-09-24T22:18:48.661Z,99.90
2022-09-24T22:21:15.807Z,99.90
2022-09-24T22:23:42.561Z,99.90
2022-09-24T22:26:09.933Z,99.90
2022-09-24T22:28:38.135Z,99.90
2022-09-24T22:31:09.264Z,99.90
2022-09-24T22:33:54.735Z,99.90
2022-09-24T22:36:21.905Z,99.90
2022-09-24T22:38:51.637Z,99.90
2022-09-24T22:41:18.291Z,99.90
2022-09-24T22:43:45.994Z,99.90
2022-09-24T22:46:13.760Z,99.90
2022-09-24T22:48:40.719Z,99.90
2022-09-24T22:51:08.673Z,99.90
2022-09-24T22:53:36.515Z,99.90
2022-09-24T22:56:04.880Z,99.90
2022-09-24T22:58:32.565Z,99.90
2022-09-24T23:01:09.475Z,99.90
2022-09-24T23:03:36.821Z,99.90
2022-09-24T23:06:05.986Z,99.90
2022-09-24T23:08:36.830Z,99.90
2022-09-24T23:11:14.561Z,99.90
2022-09-24T23:13:42.216Z,99.90
2022-09-24T23:16:12.983Z,99.90
2022-09-24T23:18:40.694Z,99.90
2022-09-24T23:21:09.002Z,99.90
2022-09-24T23:23:35.721Z,99.90
2022-09-24T23:26:07.677Z,99.90
2022-09-24T23:28:35.038Z,99.90
2022-09-24T23:31:02.315Z,99.90
2022-09-24T23:33:36.230Z,99.90
2022-09-24T23:36:03.596Z,99.90
2022-09-24T23:38:30.326Z,99.90
2022-09-24T23:40:57.311Z,99.90
2022-09-24T23:43:24.261Z,99.90
2022-09-24T23:45:51.079Z,99.90
2022-09-24T23:48:18.046Z,99.90
2022-09-24T23:50:44.789Z,99.90
2022-09-24T23:53:12.362Z,99.90
2022-09-24T23:55:39.495Z,99.90
2022-09-24T23:58:07.093Z,99.90
